createdAt,value
2022-11-07T00:00:55.572Z,24.70
2022-11-07T00:02:57.447Z,24.90
2022-11-07T00:04:59.144Z,25.23
2022-11-07T00:07:00.970Z,24.05
2022-11-07T00:09:02.598Z,24.55
2022-11-07T00:11:05.497Z,23.10
2022-11-07T00:13:07.150Z,24.43
2022-11-07T00:15:09.150Z,23.30
2022-11-07T00:17:10.869Z,23.38
2022-11-07T00:19:14.376Z,24.58
2022-11-07T00:21:15.949Z,25.20
2022-11-07T00:23:17.700Z,23.95
2022-11-07T00:25:19.337Z,23.95
2022-11-07T00:27:21.204Z,24.75
2022-11-07T00:29:23.072Z,24.35
2022-11-07T00:31:25.145Z,24.83
2022-11-07T00:33:26.763Z,26.45
2022-11-07T00:35:28.615Z,25.52
2022-11-07T00:37:30.256Z,25.50
2022-11-07T00:39:31.979Z,25.88
2022-11-07T00:41:33.604Z,27.50
2022-11-07T00:43:35.420Z,25.67
2022-11-07T00:45:37.032Z,26.35
2022-11-07T00:47:38.779Z,25.63
2022-11-07T00:49:40.416Z,26.50
2022-11-07T00:51:42.646Z,26.80
2022-11-07T00:53:45.057Z,26.92
2022-11-07T00:55:47.767Z,24.40
2022-11-07T00:57:49.503Z,25.40
2022-11-07T00:59:51.077Z,25.58
2022-11-07T01:01:52.845Z,24.30
2022-11-07T01:04:14.068Z,24.30
2022-11-07T01:06:15.702Z,26.15
2022-11-07T01:08:17.308Z,24.02
2022-11-07T01:10:19.104Z,24.80
2022-11-07T01:12:20.773Z,25.25
2022-11-07T01:14:23.068Z,24.27
2022-11-07T01:16:25.423Z,25.17
2022-11-07T01:18:27.311Z,24.95
2022-11-07T01:20:29.122Z,24.83
2022-11-07T01:22:30.783Z,24.77
2022-11-07T01:24:32.581Z,25.60
2022-11-07T01:26:34.284Z,25.50
2022-11-07T01:28:36.807Z,25.15
2022-11-07T01:30:40.261Z,25.40
2022-11-07T01:32:41.875Z,26.08
2022-11-07T01:34:43.720Z,27.25
2022-11-07T01:36:45.528Z,25.05
2022-11-07T01:38:50.936Z,25.85
2022-11-07T01:41:28.238Z,26.50
2022-11-07T01:43:46.861Z,27.25
2022-11-07T01:45:48.473Z,26.73
2022-11-07T01:47:50.679Z,25.70
2022-11-07T01:49:52.664Z,25.88
2022-11-07T01:52:04.872Z,27.27
2022-11-07T01:54:07.032Z,25.98
2022-11-07T01:56:13.127Z,26.75
2022-11-07T01:58:14.860Z,25.77
2022-11-07T02:00:19.036Z,26.95
2022-11-07T02:02:20.955Z,28.05
2022-11-07T02:04:24.329Z,26.92
2022-11-07T02:06:39.739Z,28.23
2022-11-07T02:08:42.670Z,28.13
2022-11-07T02:10:44.621Z,27.87
2022-11-07T02:12:46.245Z,29.38
2022-11-07T02:14:47.898Z,26.50
2022-11-07T02:16:49.612Z,26.23
2022-11-07T02:18:51.257Z,28.10
2022-11-07T02:20:53.409Z,28.13
2022-11-07T02:23:01.085Z,29.08
2022-11-07T02:25:06.136Z,28.27
2022-11-07T02:27:12.022Z,27.88
2022-11-07T02:29:13.861Z,26.95
2022-11-07T02:31:46.526Z,25.73
2022-11-07T02:33:48.186Z,25.02
2022-11-07T02:35:51.496Z,26.25
2022-11-07T02:37:53.611Z,26.27
2022-11-07T02:39:55.372Z,26.50
2022-11-07T02:41:58.833Z,25.80
2022-11-07T02:44:07.175Z,24.52
2022-11-07T02:46:10.673Z,25.58
2022-11-07T02:48:12.722Z,23.92
2022-11-07T02:50:15.988Z,24.83
2022-11-07T02:52:17.669Z,23.92
2022-11-07T02:54:19.565Z,21.77
2022-11-07T02:56:22.217Z,23.63
2022-11-07T02:58:23.929Z,21.13
2022-11-07T03:00:26.033Z,21.58
2022-11-07T03:02:27.773Z,22.33
2022-11-07T03:04:29.513Z,21.05
2022-11-07T03:06:31.267Z,19.65
2022-11-07T03:08:33.000Z,19.23
2022-11-07T03:10:34.732Z,17.88
2022-11-07T03:12:36.560Z,19.80
2022-11-07T03:14:38.283Z,18.75
2022-11-07T03:16:39.970Z,17.52
2022-11-07T03:18:41.670Z,17.63
2022-11-07T03:20:43.327Z,19.23
2022-11-07T03:22:47.425Z,16.92
2022-11-07T03:24:49.189Z,17.33
2022-11-07T03:26:50.933Z,16.35
2022-11-07T03:28:52.598Z,16.65
2022-11-07T03:30:54.343Z,16.42
2022-11-07T03:32:58.933Z,15.85
2022-11-07T03:35:00.621Z,14.95
2022-11-07T03:37:02.369Z,15.60
2022-11-07T03:39:04.384Z,16.13
2022-11-07T03:41:05.989Z,15.40
2022-11-07T03:43:07.631Z,16.13
2022-11-07T03:45:10.237Z,17.33
2022-11-07T03:47:11.864Z,18.33
2022-11-07T03:49:13.566Z,17.10
2022-11-07T03:51:15.528Z,17.55
2022-11-07T03:53:20.823Z,18.88
2022-11-07T03:55:26.762Z,18.45
2022-11-07T03:57:28.688Z,18.98
2022-11-07T03:59:30.494Z,18.80
2022-11-07T04:01:32.208Z,19.40
2022-11-07T04:03:34.116Z,21.00
2022-11-07T04:05:36.077Z,19.95
2022-11-07T04:07:38.130Z,22.92
2022-11-07T04:09:40.117Z,51.75
2022-11-07T04:12:06.646Z,50.35
2022-11-07T04:14:26.923Z,20.23
2022-11-07T04:16:47.510Z,18.83
2022-11-07T04:18:49.285Z,17.25
2022-11-07T04:20:51.039Z,23.83
2022-11-07T04:22:52.927Z,28.98
2022-11-07T04:24:54.819Z,32.33
2022-11-07T04:27:15.118Z,35.10
2022-11-07T04:29:19.778Z,23.30
2022-11-07T04:31:22.306Z,22.23
2022-11-07T04:33:24.013Z,20.25
2022-11-07T04:35:31.318Z,19.67
2022-11-07T04:37:32.989Z,39.95
2022-11-07T04:39:34.660Z,23.23
2022-11-07T04:41:36.255Z,19.33
2022-11-07T04:43:37.860Z,21.48
2022-11-07T04:45:39.994Z,20.63
2022-11-07T04:47:41.924Z,19.48
2022-11-07T04:49:43.676Z,17.23
2022-11-07T04:51:45.355Z,18.67
2022-11-07T04:53:47.012Z,18.10
2022-11-07T04:55:48.768Z,17.67
2022-11-07T04:57:50.367Z,19.05
2022-11-07T04:59:52.094Z,17.50
2022-11-07T05:01:53.957Z,18.48
2022-11-07T05:03:55.645Z,16.95
2022-11-07T05:05:57.373Z,18.58
2022-11-07T05:07:59.047Z,17.63
2022-11-07T05:10:00.723Z,18.95
2022-11-07T05:12:03.253Z,18.27
2022-11-07T05:14:04.910Z,17.83
2022-11-07T05:16:09.954Z,18.83
2022-11-07T05:18:11.659Z,17.60
2022-11-07T05:20:27.496Z,16.45
2022-11-07T05:22:50.142Z,19.45
2022-11-07T05:24:55.566Z,17.60
2022-11-07T05:26:57.228Z,18.58
2022-11-07T05:28:58.991Z,19.35
2022-11-07T05:31:02.847Z,18.52
2022-11-07T05:35:06.421Z,19.52
2022-11-07T05:37:09.177Z,19.25
2022-11-07T05:39:10.856Z,19.08
2022-11-07T05:41:14.082Z,19.20
2022-11-07T05:43:16.449Z,18.83
2022-11-07T05:45:18.369Z,19.20
2022-11-07T05:47:20.455Z,19.08
2022-11-07T05:49:22.094Z,20.00
2022-11-07T05:51:23.711Z,19.83
2022-11-07T05:53:26.176Z,20.80
2022-11-07T05:55:28.005Z,19.33
2022-11-07T05:57:30.784Z,20.80
2022-11-07T05:59:32.644Z,20.75
2022-11-07T06:01:34.354Z,20.10
2022-11-07T06:03:36.012Z,21.15
2022-11-07T06:05:39.274Z,20.40
2022-11-07T06:07:41.161Z,22.05
2022-11-07T06:09:42.812Z,21.90
2022-11-07T06:11:44.454Z,21.50
2022-11-07T06:13:46.162Z,21.27
2022-11-07T06:15:48.059Z,20.75
2022-11-07T06:17:49.840Z,21.00
2022-11-07T06:19:52.050Z,20.73
2022-11-07T06:21:53.715Z,20.70
2022-11-07T06:23:55.336Z,21.95
2022-11-07T06:25:57.088Z,23.13
2022-11-07T06:28:03.670Z,22.50
2022-11-07T06:30:05.942Z,22.25
2022-11-07T06:32:07.833Z,23.63
2022-11-07T06:34:09.486Z,24.42
2022-11-07T06:36:12.501Z,22.63
2022-11-07T06:38:15.544Z,24.63
2022-11-07T06:40:17.485Z,24.80
2022-11-07T06:42:19.129Z,24.40
2022-11-07T06:44:20.929Z,25.10
2022-11-07T06:46:23.401Z,24.60
2022-11-07T06:48:25.008Z,24.33
2022-11-07T06:50:27.172Z,23.00
2022-11-07T06:52:29.298Z,25.02
2022-11-07T06:54:30.890Z,24.40
2022-11-07T06:56:32.651Z,25.00
2022-11-07T06:58:34.799Z,24.55
2022-11-07T07:00:37.052Z,24.92
2022-11-07T07:02:57.500Z,25.13
2022-11-07T07:04:59.892Z,25.05
2022-11-07T07:07:01.665Z,26.08
2022-11-07T07:09:03.534Z,25.75
2022-11-07T07:11:07.148Z,24.52
2022-11-07T07:13:08.870Z,25.65
2022-11-07T07:15:10.773Z,27.52
2022-11-07T07:17:12.690Z,25.73
2022-11-07T07:19:14.365Z,26.00
2022-11-07T07:21:16.186Z,26.52
2022-11-07T07:23:19.130Z,25.90
2022-11-07T07:25:20.975Z,25.58
2022-11-07T07:27:22.713Z,25.52
2022-11-07T07:29:24.369Z,27.63
2022-11-07T07:31:31.190Z,26.27
2022-11-07T07:33:32.861Z,26.73
2022-11-07T07:35:34.455Z,28.05
2022-11-07T07:37:36.215Z,27.95
2022-11-07T07:39:37.893Z,26.55
2022-11-07T07:41:40.425Z,28.48
2022-11-07T07:43:42.407Z,25.98
2022-11-07T07:45:44.035Z,23.95
2022-11-07T07:47:45.976Z,25.67
2022-11-07T07:49:47.642Z,26.02
2022-11-07T07:51:49.792Z,24.98
2022-11-07T07:53:51.501Z,23.92
2022-11-07T07:56:00.054Z,25.73
2022-11-07T07:58:01.808Z,24.92
2022-11-07T08:00:03.761Z,25.35
2022-11-07T08:02:05.546Z,25.83
2022-11-07T08:04:34.068Z,25.25
2022-11-07T08:06:37.965Z,25.88
2022-11-07T08:08:39.680Z,26.13
2022-11-07T08:10:43.159Z,26.90
2022-11-07T08:14:47.062Z,24.20
2022-11-07T08:16:48.730Z,25.73
2022-11-07T08:18:50.349Z,24.02
2022-11-07T08:20:54.000Z,24.85
2022-11-07T08:23:11.333Z,26.42
2022-11-07T08:25:16.483Z,24.20
2022-11-07T08:27:18.141Z,24.98
2022-11-07T08:29:19.779Z,24.05
2022-11-07T08:31:21.599Z,23.88
2022-11-07T08:33:23.592Z,25.02
2022-11-07T08:35:25.467Z,24.73
2022-11-07T08:37:27.143Z,25.15
2022-11-07T08:39:28.917Z,24.80
2022-11-07T08:41:30.514Z,23.52
2022-11-07T08:43:32.379Z,24.27
2022-11-07T08:45:34.107Z,25.77
2022-11-07T08:47:35.751Z,24.73
2022-11-07T08:49:37.375Z,24.58
2022-11-07T08:51:39.166Z,26.75
2022-11-07T08:53:40.758Z,25.10
2022-11-07T08:55:48.803Z,25.13
2022-11-07T08:58:08.698Z,25.85
2022-11-07T09:00:11.217Z,22.75
2022-11-07T09:03:08.312Z,23.45
2022-11-07T09:04:34.942Z,22.88
2022-11-07T09:06:36.771Z,22.33
2022-11-07T09:08:38.615Z,22.30
2022-11-07T09:10:40.480Z,22.55
2022-11-07T09:12:49.527Z,20.00
2022-11-07T09:14:51.210Z,20.35
2022-11-07T09:16:52.841Z,20.08
2022-11-07T09:18:54.730Z,20.38
2022-11-07T09:21:00.447Z,19.63
2022-11-07T09:23:17.981Z,19.50
2022-11-07T09:25:20.018Z,19.95
2022-11-07T09:27:21.765Z,18.23
2022-11-07T09:29:23.884Z,18.63
2022-11-07T09:31:25.822Z,17.58
2022-11-07T09:33:28.130Z,18.77
2022-11-07T09:35:29.845Z,17.33
2022-11-07T09:37:31.626Z,17.23
2022-11-07T09:39:34.251Z,19.65
2022-11-07T09:41:52.304Z,19.13
2022-11-07T09:44:21.130Z,18.08
2022-11-07T09:46:39.061Z,18.88
2022-11-07T09:48:44.659Z,18.55
2022-11-07T09:50:49.361Z,17.38
2022-11-07T09:52:55.715Z,18.00
2022-11-07T09:55:03.979Z,18.25
2022-11-07T09:57:07.946Z,19.08
2022-11-07T09:59:37.101Z,18.25
2022-11-07T10:01:38.900Z,18.25
2022-11-07T10:03:43.283Z,17.48
2022-11-07T10:06:05.432Z,17.17
2022-11-07T10:08:15.775Z,17.70
2022-11-07T10:10:47.368Z,17.27
2022-11-07T10:13:22.362Z,17.60
2022-11-07T10:15:42.788Z,17.52
2022-11-07T10:18:10.081Z,17.30
2022-11-07T10:20:40.669Z,18.58
2022-11-07T10:22:54.589Z,17.75
2022-11-07T10:25:25.727Z,18.48
2022-11-07T10:27:27.884Z,18.58
2022-11-07T10:29:44.112Z,17.63
2022-11-07T10:32:09.290Z,16.17
2022-11-07T10:34:34.613Z,14.77
2022-11-07T10:36:36.310Z,16.30
2022-11-07T10:38:40.817Z,16.60
2022-11-07T10:40:42.813Z,15.80
2022-11-07T10:42:46.512Z,17.40
2022-11-07T10:46:54.628Z,16.35
2022-11-07T10:48:59.624Z,16.92
2022-11-07T10:51:01.420Z,15.68
2022-11-07T10:53:09.845Z,16.08
2022-11-07T10:55:16.428Z,15.48
2022-11-07T10:57:20.556Z,15.40
2022-11-07T10:59:32.894Z,16.02
2022-11-07T11:01:37.664Z,17.20
2022-11-07T11:03:47.017Z,15.20
2022-11-07T11:05:48.636Z,17.10
2022-11-07T11:07:50.895Z,16.23
2022-11-07T11:09:57.896Z,15.13
2022-11-07T11:12:10.497Z,15.98
2022-11-07T11:14:16.373Z,15.70
2022-11-07T11:16:28.150Z,16.00
2022-11-07T11:18:29.908Z,16.73
2022-11-07T11:20:38.646Z,15.48
2022-11-07T11:22:42.392Z,15.73
2022-11-07T11:26:47.856Z,15.38
2022-11-07T11:28:54.339Z,15.65
2022-11-07T11:31:04.070Z,14.43
2022-11-07T11:33:20.416Z,14.77
2022-11-07T11:35:28.058Z,16.00
2022-11-07T11:37:30.982Z,14.93
2022-11-07T11:39:41.605Z,16.25
2022-11-07T11:41:57.189Z,15.48
2022-11-07T11:44:19.111Z,14.98
2022-11-07T11:46:26.502Z,14.52
2022-11-07T11:48:39.867Z,14.88
2022-11-07T11:51:03.638Z,14.55
2022-11-07T11:53:05.659Z,14.25
2022-11-07T11:55:14.081Z,14.98
2022-11-07T11:57:21.892Z,15.20
2022-11-07T12:00:04.409Z,15.02
2022-11-07T12:02:33.897Z,14.48
2022-11-07T12:04:35.705Z,14.70
2022-11-07T12:06:47.382Z,13.73
2022-11-07T12:09:01.248Z,14.27
2022-11-07T12:11:11.482Z,14.20
2022-11-07T12:13:40.959Z,14.57
2022-11-07T12:15:48.910Z,14.95
2022-11-07T12:18:15.012Z,15.00
2022-11-07T12:20:18.159Z,14.80
2022-11-07T12:22:22.521Z,16.00
2022-11-07T12:24:46.107Z,15.02
2022-11-07T12:27:03.051Z,13.97
2022-11-07T12:29:24.589Z,15.13
2022-11-07T12:31:31.559Z,15.27
2022-11-07T12:33:48.305Z,14.43
2022-11-07T12:36:02.787Z,14.30
2022-11-07T12:38:04.513Z,14.82
2022-11-07T12:40:18.464Z,15.18
2022-11-07T12:43:03.051Z,15.15
2022-11-07T12:45:17.190Z,14.98
2022-11-07T12:49:36.548Z,15.60
2022-11-07T12:51:59.870Z,14.50
2022-11-07T12:54:39.254Z,15.23
2022-11-07T12:56:41.315Z,13.98
2022-11-07T12:58:44.332Z,15.00
2022-11-07T13:00:46.737Z,14.93
2022-11-07T13:03:06.800Z,15.73
2022-11-07T13:05:08.409Z,15.68
2022-11-07T13:07:55.855Z,14.63
2022-11-07T13:10:16.163Z,15.70
2022-11-07T13:12:42.118Z,14.68
2022-11-07T13:14:45.589Z,14.00
2022-11-07T13:17:27.797Z,15.48
2022-11-07T13:19:33.088Z,15.82
2022-11-07T13:21:43.006Z,15.60
2022-11-07T13:23:45.943Z,15.07
2022-11-07T13:25:58.278Z,15.80
2022-11-07T13:28:30.094Z,15.65
2022-11-07T13:30:36.115Z,14.85
2022-11-07T13:32:46.110Z,15.68
2022-11-07T13:34:50.294Z,14.85
2022-11-07T13:36:58.717Z,15.38
2022-11-07T13:39:01.050Z,15.20
2022-11-07T13:41:04.467Z,15.43
2022-11-07T13:43:17.237Z,15.15
2022-11-07T13:45:36.621Z,15.00
2022-11-07T13:47:40.910Z,15.05
2022-11-07T13:49:46.110Z,16.10
2022-11-07T13:51:50.179Z,14.05
2022-11-07T13:54:03.319Z,15.73
2022-11-07T13:56:11.688Z,16.05
2022-11-07T13:58:15.561Z,15.45
2022-11-07T14:00:19.712Z,14.40
2022-11-07T14:02:25.646Z,15.23
2022-11-07T14:04:28.777Z,13.90
2022-11-07T14:06:32.088Z,14.75
2022-11-07T14:08:37.443Z,13.85
2022-11-07T14:10:46.576Z,14.88
2022-11-07T14:12:48.347Z,15.32
2022-11-07T14:14:51.124Z,15.15
2022-11-07T14:16:59.077Z,16.67
2022-11-07T14:19:07.850Z,15.02
2022-11-07T14:21:25.679Z,15.20
2022-11-07T14:23:30.375Z,15.05
2022-11-07T14:25:34.218Z,13.82
2022-11-07T14:27:35.995Z,14.52
2022-11-07T14:29:37.652Z,15.70
2022-11-07T14:31:39.561Z,15.18
2022-11-07T14:33:48.333Z,15.15
2022-11-07T14:35:51.833Z,14.95
2022-11-07T14:37:53.702Z,14.98
2022-11-07T14:39:58.231Z,15.23
2022-11-07T14:42:01.919Z,15.90
2022-11-07T14:46:13.273Z,14.95
2022-11-07T14:48:18.995Z,16.05
2022-11-07T14:50:25.355Z,14.93
2022-11-07T14:52:34.911Z,16.20
2022-11-07T14:54:38.392Z,15.88
2022-11-07T14:56:42.771Z,15.27
2022-11-07T14:58:45.747Z,16.05
2022-11-07T15:00:57.724Z,16.63
2022-11-07T15:03:00.241Z,15.10
2022-11-07T15:05:09.699Z,15.10
2022-11-07T15:07:24.595Z,15.23
2022-11-07T15:09:33.619Z,14.90
2022-11-07T15:11:37.342Z,15.85
2022-11-07T15:15:40.764Z,15.63
2022-11-07T15:17:51.260Z,16.35
2022-11-07T15:20:02.307Z,15.93
2022-11-07T15:22:05.017Z,15.73
2022-11-07T15:24:45.466Z,16.67
2022-11-07T15:27:12.612Z,16.15
2022-11-07T15:29:20.194Z,16.20
2022-11-07T15:31:24.276Z,16.48
2022-11-07T15:33:29.703Z,16.95
2022-11-07T15:35:44.165Z,17.23
2022-11-07T15:37:57.583Z,17.65
2022-11-07T15:39:59.256Z,17.85
2022-11-07T15:42:00.985Z,20.00
2022-11-07T15:44:02.933Z,18.92
2022-11-07T15:46:12.864Z,20.17
2022-11-07T15:48:20.473Z,21.38
2022-11-07T15:50:25.127Z,22.30
2022-11-07T15:52:26.813Z,22.80
2022-11-07T15:54:28.590Z,23.52
2022-11-07T15:56:30.520Z,22.50
2022-11-07T15:58:32.149Z,23.67
2022-11-07T16:00:34.236Z,23.33
2022-11-07T16:02:36.128Z,23.60
2022-11-07T16:04:39.722Z,23.60
2022-11-07T16:06:45.978Z,24.52
2022-11-07T16:08:47.978Z,23.85
2022-11-07T16:10:52.116Z,23.90
2022-11-07T16:12:54.185Z,22.75
2022-11-07T16:15:15.643Z,23.15
2022-11-07T16:17:19.045Z,23.50
2022-11-07T16:19:23.278Z,23.27
2022-11-07T16:21:24.944Z,23.40
2022-11-07T16:23:27.549Z,22.33
2022-11-07T16:25:30.528Z,24.27
2022-11-07T16:27:32.512Z,22.70
2022-11-07T16:29:34.146Z,24.45
2022-11-07T16:31:35.901Z,23.20
2022-11-07T16:33:37.683Z,24.67
2022-11-07T16:35:40.112Z,25.27
2022-11-07T16:37:42.154Z,25.55
2022-11-07T16:39:43.825Z,26.23
2022-11-07T16:41:45.530Z,28.88
2022-11-07T16:43:47.669Z,26.15
2022-11-07T16:45:52.229Z,26.85
2022-11-07T16:47:54.541Z,28.80
2022-11-07T16:49:56.340Z,27.50
2022-11-07T16:51:58.586Z,26.75
2022-11-07T16:54:00.526Z,27.63
2022-11-07T16:56:02.941Z,25.67
2022-11-07T16:58:04.618Z,27.73
2022-11-07T17:00:07.194Z,29.75
2022-11-07T17:02:22.132Z,31.73
2022-11-07T17:04:23.953Z,32.28
2022-11-07T17:06:32.063Z,31.85
2022-11-07T17:08:43.801Z,30.33
2022-11-07T17:10:46.474Z,31.30
2022-11-07T17:12:48.216Z,28.80
2022-11-07T17:14:49.945Z,29.98
2022-11-07T17:16:51.611Z,28.58
2022-11-07T17:18:53.722Z,30.88
2022-11-07T17:20:55.800Z,29.98
2022-11-07T17:22:57.544Z,31.13
2022-11-07T17:24:59.239Z,30.02
2022-11-07T17:27:01.226Z,30.33
2022-11-07T17:29:04.876Z,30.40
2022-11-07T17:31:06.683Z,30.88
2022-11-07T17:33:08.988Z,29.85
2022-11-07T17:35:31.021Z,29.27
2022-11-07T17:37:32.949Z,31.23
2022-11-07T17:39:34.756Z,33.00
2022-11-07T17:41:36.902Z,35.30
2022-11-07T17:43:38.672Z,33.10
2022-11-07T17:45:40.601Z,31.08
2022-11-07T17:47:42.390Z,30.75
2022-11-07T17:49:44.040Z,30.20
2022-11-07T17:51:45.981Z,30.55
2022-11-07T17:53:48.112Z,30.92
2022-11-07T17:55:49.914Z,29.90
2022-11-07T17:57:51.674Z,30.40
2022-11-07T17:59:53.420Z,29.52
2022-11-07T18:01:55.458Z,31.08
2022-11-07T18:03:57.371Z,34.42
2022-11-07T18:05:59.054Z,34.25
2022-11-07T18:08:01.292Z,39.35
2022-11-07T18:10:03.023Z,40.22
2022-11-07T18:12:04.983Z,36.08
2022-11-07T18:14:06.867Z,34.70
2022-11-07T18:16:10.497Z,35.35
2022-11-07T18:18:12.141Z,32.83
2022-11-07T18:20:13.836Z,36.78
2022-11-07T18:22:15.612Z,40.10
2022-11-07T18:24:17.507Z,38.10
2022-11-07T18:26:21.996Z,34.65
2022-11-07T18:28:23.713Z,33.90
2022-11-07T18:30:25.665Z,36.45
2022-11-07T18:32:31.441Z,35.65
2022-11-07T18:34:36.249Z,36.88
2022-11-07T18:36:39.943Z,37.72
2022-11-07T18:38:41.862Z,38.22
2022-11-07T18:40:43.439Z,37.25
2022-11-07T18:42:46.133Z,35.67
2022-11-07T18:44:47.771Z,35.85
2022-11-07T18:46:49.478Z,35.28
2022-11-07T18:48:51.145Z,34.95
2022-11-07T18:50:52.824Z,32.03
2022-11-07T18:52:54.380Z,32.35
2022-11-07T18:54:56.005Z,32.67
2022-11-07T18:56:57.644Z,33.92
2022-11-07T18:58:59.556Z,32.67
2022-11-07T19:01:06.707Z,31.55
2022-11-07T19:03:08.344Z,32.45
2022-11-07T19:05:10.178Z,30.67
2022-11-07T19:07:11.967Z,36.72
2022-11-07T19:09:13.630Z,35.78
2022-11-07T19:11:21.012Z,34.13
2022-11-07T19:13:23.525Z,37.00
2022-11-07T19:15:28.846Z,34.97
2022-11-07T19:17:30.530Z,34.42
2022-11-07T19:19:32.324Z,35.22
2022-11-07T19:21:33.982Z,36.63
2022-11-07T19:23:37.266Z,36.38
2022-11-07T19:25:40.001Z,34.40
2022-11-07T19:27:41.611Z,33.63
2022-11-07T19:29:43.690Z,32.60
2022-11-07T19:31:45.496Z,33.67
2022-11-07T19:33:47.120Z,40.33
2022-11-07T19:35:57.917Z,38.22
2022-11-07T19:38:00.967Z,43.15
2022-11-07T19:40:06.867Z,47.72
2022-11-07T19:42:08.574Z,52.05
2022-11-07T19:44:10.330Z,48.90
2022-11-07T19:46:15.217Z,46.33
2022-11-07T19:48:20.302Z,47.33
2022-11-07T19:50:22.391Z,45.72
2022-11-07T19:52:24.116Z,44.72
2022-11-07T19:54:25.878Z,47.33
2022-11-07T19:56:31.025Z,49.08
2022-11-07T19:58:35.307Z,48.75
2022-11-07T20:00:37.530Z,47.25
2022-11-07T20:02:44.345Z,45.53
2022-11-07T20:04:46.980Z,45.05
2022-11-07T20:06:50.373Z,43.88
2022-11-07T20:08:52.309Z,45.92
2022-11-07T20:10:53.924Z,43.20
2022-11-07T20:12:55.767Z,44.70
2022-11-07T20:14:57.566Z,41.05
2022-11-07T20:16:59.911Z,40.50
2022-11-07T20:19:01.841Z,42.50
2022-11-07T20:21:06.313Z,43.47
2022-11-07T20:23:07.930Z,43.30
2022-11-07T20:25:10.110Z,42.47
2022-11-07T20:27:11.710Z,44.33
2022-11-07T20:29:14.693Z,44.60
2022-11-07T20:31:34.726Z,41.00
2022-11-07T20:33:36.478Z,38.05
2022-11-07T20:35:38.352Z,40.20
2022-11-07T20:37:40.013Z,40.33
2022-11-07T20:39:44.307Z,37.25
2022-11-07T20:41:46.185Z,39.08
2022-11-07T20:43:47.760Z,39.35
2022-11-07T20:45:49.957Z,37.95
2022-11-07T20:47:51.775Z,39.90
2022-11-07T20:49:53.343Z,41.63
2022-11-07T20:51:55.099Z,41.83
2022-11-07T20:53:57.047Z,45.13
2022-11-07T20:55:58.662Z,43.70
2022-11-07T20:58:00.905Z,48.67
2022-11-07T21:00:03.208Z,49.28
2022-11-07T21:02:04.842Z,48.70
2022-11-07T21:04:08.755Z,42.95
2022-11-07T21:08:13.321Z,44.38
2022-11-07T21:10:14.970Z,41.83
2022-11-07T21:12:16.688Z,38.08
2022-11-07T21:14:18.548Z,40.88
2022-11-07T21:16:21.842Z,41.92
2022-11-07T21:18:24.465Z,38.80
2022-11-07T21:20:26.151Z,40.47
2022-11-07T21:22:29.552Z,36.60
2022-11-07T21:24:31.813Z,35.38
2022-11-07T21:26:41.673Z,34.65
2022-11-07T21:28:43.645Z,34.42
2022-11-07T21:30:59.660Z,35.80
2022-11-07T21:33:01.303Z,36.15
2022-11-07T21:35:03.063Z,36.55
2022-11-07T21:37:04.927Z,35.00
2022-11-07T21:39:07.676Z,34.97
2022-11-07T21:41:10.668Z,35.95
2022-11-07T21:43:12.317Z,34.15
2022-11-07T21:45:14.043Z,35.20
2022-11-07T21:47:15.770Z,34.08
2022-11-07T21:49:17.525Z,33.25
2022-11-07T21:51:24.340Z,34.58
2022-11-07T21:53:26.233Z,33.38
2022-11-07T21:55:28.113Z,34.25
2022-11-07T21:57:30.049Z,34.10
2022-11-07T21:59:31.800Z,34.17
2022-11-07T22:01:36.484Z,33.63
2022-11-07T22:04:04.512Z,34.38
2022-11-07T22:06:06.794Z,34.33
2022-11-07T22:08:08.748Z,33.97
2022-11-07T22:10:10.728Z,35.83
2022-11-07T22:12:12.430Z,34.92
2022-11-07T22:14:16.517Z,34.10
2022-11-07T22:16:20.682Z,34.83
2022-11-07T22:18:22.864Z,34.53
2022-11-07T22:20:24.700Z,34.80
2022-11-07T22:22:26.357Z,34.28
2022-11-07T22:24:28.110Z,33.60
2022-11-07T22:26:30.151Z,34.75
2022-11-07T22:28:31.992Z,33.22
2022-11-07T22:30:33.801Z,34.08
2022-11-07T22:32:35.501Z,32.58
2022-11-07T22:34:37.239Z,33.40
2022-11-07T22:36:38.977Z,32.03
2022-11-07T22:38:41.138Z,33.15
2022-11-07T22:40:48.742Z,32.42
2022-11-07T22:42:50.453Z,34.20
2022-11-07T22:44:52.195Z,33.72
2022-11-07T22:46:53.863Z,35.33
2022-11-07T22:48:56.449Z,34.97
2022-11-07T22:51:06.125Z,33.80
2022-11-07T22:53:07.743Z,34.72
2022-11-07T22:55:09.562Z,35.00
2022-11-07T22:57:15.299Z,34.70
2022-11-07T22:59:19.361Z,33.92
2022-11-07T23:01:24.022Z,36.05
2022-11-07T23:03:25.702Z,35.85
2022-11-07T23:05:27.387Z,34.55
2022-11-07T23:07:28.975Z,35.28
2022-11-07T23:09:31.405Z,34.63
2022-11-07T23:11:50.811Z,36.65
2022-11-07T23:14:00.376Z,35.83
2022-11-07T23:16:02.263Z,37.17
2022-11-07T23:18:04.023Z,36.53
2022-11-07T23:20:07.149Z,37.83
2022-11-07T23:22:08.857Z,38.42
2022-11-07T23:24:11.055Z,37.80
2022-11-07T23:26:15.392Z,36.72
2022-11-07T23:28:17.494Z,35.22
2022-11-07T23:30:19.453Z,34.72
2022-11-07T23:32:21.169Z,35.97
2022-11-07T23:34:23.147Z,36.05
2022-11-07T23:36:24.764Z,35.80
2022-11-07T23:38:27.668Z,35.67
2022-11-07T23:40:29.344Z,36.27
2022-11-07T23:42:31.111Z,33.60
2022-11-07T23:44:32.673Z,33.78
2022-11-07T23:46:53.137Z,35.67
2022-11-07T23:49:14.738Z,33.90
2022-11-07T23:51:16.636Z,33.05
2022-11-07T23:53:36.695Z,32.75
2022-11-07T23:55:41.624Z,32.92
2022-11-07T23:58:01.990Z,33.08
